Time;durP1;ratioP1;P1;durP2;ratioP2;P2;SDS_P1;SDS_P2;PMS_P1;PMS_P2;Temp;Humidity;BMP_temperature;BMP_pressure;BME280_temperature;BME280_humidity;BME280_pressure;Samples;Min_cycle;Max_cycle;Signal;HPM_P1;HPM_P2
2023/07/14 00:01:20;;;;;;;0.10;0.10;;;;;;;18.09;nan;100773.13;5031457;28;20085;-83
2023/07/14 00:03:46;;;;;;;0.10;0.10;;;;;;;18.11;nan;100773.75;5006849;28;20438;-83
2023/07/14 00:06:13;;;;;;;0.10;0.10;;;;;;;18.12;nan;100775.41;5012696;28;20041;-84
2023/07/14 00:08:41;;;;;;;0.00;0.00;;;;;;;18.10;nan;100770.25;5027845;28;20502;-83
2023/07/14 00:11:17;;;;;;;0.10;0.10;;;;;;;18.15;nan;100767.00;5017513;28;20098;-84
2023/07/14 00:13:43;;;;;;;0.10;0.10;;;;;;;18.16;nan;100757.94;5023833;28;20038;-86
2023/07/14 00:16:24;;;;;;;0.10;0.10;;;;;;;18.16;nan;100757.94;4999459;28;20073;-85
2023/07/14 00:18:49;;;;;;;0.10;0.10;;;;;;;18.16;nan;100756.09;5022279;28;20037;-84
2023/07/14 00:21:23;;;;;;;0.10;0.10;;;;;;;18.10;nan;100758.72;5008353;28;20045;-84
2023/07/14 00:23:50;;;;;;;0.10;0.10;;;;;;;18.00;nan;100759.06;5013476;28;20438;-84
2023/07/14 00:26:19;;;;;;;0.10;0.10;;;;;;;17.91;nan;100757.56;4987473;28;20049;-84
2023/07/14 00:28:56;;;;;;;0.10;0.10;;;;;;;17.89;nan;100747.03;5020899;28;20072;-84
2023/07/14 00:31:23;;;;;;;0.10;0.10;;;;;;;17.91;nan;100750.34;5013720;28;20080;-85
2023/07/14 00:33:50;;;;;;;0.10;0.10;;;;;;;17.97;nan;100746.06;5021574;28;20040;-83
2023/07/14 00:36:19;;;;;;;0.10;0.10;;;;;;;17.97;nan;100746.91;5023236;28;20088;-84
2023/07/14 00:38:45;;;;;;;0.10;0.10;;;;;;;17.92;nan;100741.28;4998081;28;20060;-83
2023/07/14 00:41:23;;;;;;;0.10;0.10;;;;;;;17.89;nan;100741.69;4998496;28;20042;-84
2023/07/14 00:43:50;;;;;;;0.10;0.10;;;;;;;17.90;nan;100751.38;5017456;28;20530;-85
2023/07/14 00:46:32;;;;;;;0.10;0.10;;;;;;;17.94;nan;100755.31;5017919;28;20072;-85
2023/07/14 00:49:01;;;;;;;0.10;0.10;;;;;;;17.93;nan;100748.31;5036241;28;20075;-84
2023/07/14 00:51:29;;;;;;;0.10;0.10;;;;;;;17.89;nan;100747.03;5025428;28;20030;-83
2023/07/14 00:53:56;;;;;;;0.10;0.10;;;;;;;17.86;nan;100739.41;5005425;28;20430;-84
2023/07/14 00:56:33;;;;;;;0.10;0.10;;;;;;;17.81;nan;100749.88;5013568;28;20044;-85
2023/07/14 00:58:59;;;;;;;0.10;0.10;;;;;;;17.75;nan;100746.06;5007468;28;20030;-84
2023/07/14 01:01:25;;;;;;;0.10;0.10;;;;;;;17.73;nan;100739.25;5010710;28;20395;-84
2023/07/14 01:03:53;;;;;;;0.10;0.10;;;;;;;17.78;nan;100740.34;5026992;28;20121;-85
2023/07/14 01:06:23;;;;;;;0.10;0.10;;;;;;;17.91;nan;100741.50;5005426;28;20144;-85
2023/07/14 01:08:51;;;;;;;0.10;0.10;;;;;;;17.98;nan;100737.03;5008511;28;20113;-85
2023/07/14 01:11:19;;;;;;;0.03;0.03;;;;;;;18.01;nan;100740.13;5003088;28;20037;-85
2023/07/14 01:13:44;;;;;;;0.10;0.10;;;;;;;18.00;nan;100738.50;5000402;28;20029;-85
2023/07/14 01:16:14;;;;;;;0.10;0.10;;;;;;;17.93;nan;100732.25;5013815;28;20037;-85
2023/07/14 01:18:41;;;;;;;0.10;0.10;;;;;;;18.10;nan;100737.31;5031768;28;20391;-84
2023/07/14 01:21:07;;;;;;;0.00;0.00;;;;;;;17.97;nan;100738.88;5016713;28;20034;-84
2023/07/14 01:23:56;;;;;;;0.10;0.10;;;;;;;17.95;nan;100729.41;5009903;28;20022;-85
2023/07/14 01:26:40;;;;;;;0.08;0.08;;;;;;;18.01;nan;100733.97;5018469;28;21906;-85
2023/07/14 01:29:06;;;;;;;0.10;0.10;;;;;;;18.08;nan;100734.81;5014575;28;20061;-84
2023/07/14 01:31:31;;;;;;;0.10;0.10;;;;;;;18.36;nan;100729.44;5007031;28;20486;-84
2023/07/14 01:33:57;;;;;;;;;;;;;;;18.29;nan;100733.09;5032363;28;20396;-85
2023/07/14 01:36:23;;;;;;;;;;;;;;;18.21;nan;100731.41;5023542;28;20268;-85
2023/07/14 01:38:48;;;;;;;;;;;;;;;18.17;nan;100738.19;5010060;28;19952;-85
2023/07/14 01:41:14;;;;;;;;;;;;;;;18.09;nan;100738.31;5007051;28;20378;-84
2023/07/14 01:43:40;;;;;;;;;;;;;;;17.92;nan;100733.28;5001439;28;20007;-84
2023/07/14 01:46:12;;;;;;;0.10;0.10;;;;;;;17.86;nan;100727.91;5012076;28;19921;-85
2023/07/14 01:48:46;;;;;;;0.10;0.10;;;;;;;18.05;nan;100727.19;5020195;28;20782;-85
2023/07/14 01:51:13;;;;;;;0.03;0.03;;;;;;;18.18;nan;100723.78;5011679;28;20909;-84
2023/07/14 01:53:48;;;;;;;;;;;;;;;17.89;nan;100724.81;5007754;28;20398;-85
2023/07/14 01:56:16;;;;;;;;;;;;;;;17.63;nan;100723.56;5031476;28;20047;-84
2023/07/14 01:58:48;;;;;;;;;;;;;;;17.41;nan;100722.75;5025423;28;20298;-85
2023/07/14 02:01:14;;;;;;;;;;;;;;;17.24;nan;100734.72;5016341;28;20004;-85
2023/07/14 02:03:41;;;;;;;;;;;;;;;17.07;nan;100732.28;5014178;28;19953;-85
2023/07/14 02:06:06;;;;;;;;;;;;;;;16.93;nan;100725.16;5025480;28;19921;-85
2023/07/14 02:08:32;;;;;;;;;;;;;;;16.87;nan;100724.03;5030355;28;20438;-85
2023/07/14 02:10:58;;;;;;;;;;;;;;;16.87;nan;100725.91;5025763;28;19924;-83
2023/07/14 02:13:24;;;;;;;;;;;;;;;16.87;nan;100718.72;5013739;28;19913;-85
2023/07/14 02:15:50;;;;;;;;;;;;;;;16.91;nan;100716.50;5012176;28;19925;-84
2023/07/14 02:18:18;;;;;;;;;;;;;;;16.94;nan;100719.59;5000983;28;19918;-83
2023/07/14 02:20:44;;;;;;;;;;;;;;;16.91;nan;100716.50;5011594;28;19959;-83
2023/07/14 02:23:14;;;;;;;;;;;;;;;16.81;nan;100724.00;5013576;28;20000;-84
2023/07/14 02:25:41;;;;;;;;;;;;;;;16.70;nan;100725.25;5013479;28;19922;-84
2023/07/14 02:28:08;;;;;;;;;;;;;;;16.72;nan;100724.06;5007002;28;19914;-84
2023/07/14 02:30:33;;;;;;;;;;;;;;;16.76;nan;100719.19;5033173;28;19913;-84
2023/07/14 02:33:02;;;;;;;;;;;;;;;16.75;nan;100723.66;5026851;28;19924;-83
2023/07/14 02:35:46;;;;;;;;;;;;;;;16.77;nan;100718.97;5004882;28;20019;-85
2023/07/14 02:38:12;;;;;;;;;;;;;;;16.70;nan;100710.06;5020312;28;19921;-84
2023/07/14 02:40:52;;;;;;;;;;;;;;;16.66;nan;100711.47;5007192;28;20338;-84
2023/07/14 02:43:19;;;;;;;;;;;;;;;16.60;nan;100701.53;5016520;28;20007;-83
2023/07/14 02:46:03;;;;;;;;;;;;;;;16.52;nan;100701.66;5019672;28;19929;-85
2023/07/14 02:48:31;;;;;;;;;;;;;;;16.47;nan;100696.88;5002743;28;19918;-84
2023/07/14 02:50:57;;;;;;;;;;;;;;;16.47;nan;100696.88;5024025;28;19949;-84
2023/07/14 02:53:22;;;;;;;;;;;;;;;16.45;nan;100698.06;5014394;28;19967;-84
2023/07/14 02:56:00;;;;;;;;;;;;;;;16.36;nan;100694.66;5013969;28;19921;-84
2023/07/14 02:58:25;;;;;;;;;;;;;;;16.23;nan;100698.00;5014758;28;19924;-85
2023/07/14 03:00:51;;;;;;;;;;;;;;;16.13;nan;100702.75;5029027;28;19917;-85
2023/07/14 03:03:17;;;;;;;;;;;;;;;16.08;nan;100702.47;5005685;28;19940;-84
2023/07/14 03:05:43;;;;;;;;;;;;;;;15.99;nan;100691.06;5003463;28;19921;-85
2023/07/14 03:08:14;;;;;;;;;;;;;;;15.91;nan;100694.66;5016782;28;19948;-84
2023/07/14 03:10:40;;;;;;;;;;;;;;;15.84;nan;100700.91;5015586;28;20432;-86
2023/07/14 03:13:05;;;;;;;;;;;;;;;15.76;nan;100698.31;5022803;28;19917;-84
2023/07/14 03:15:30;;;;;;;;;;;;;;;15.71;nan;100704.19;5020262;28;19917;-84
2023/07/14 03:17:55;;;;;;;;;;;;;;;15.66;nan;100699.38;5012205;28;20363;-86
2023/07/14 03:20:20;;;;;;;;;;;;;;;15.67;nan;100700.19;5025327;28;20188;-83
2023/07/14 03:22:46;;;;;;;;;;;;;;;15.70;nan;100705.19;5013768;28;19913;-85
2023/07/14 03:25:11;;;;;;;;;;;;;;;15.73;nan;100698.66;5025786;28;19924;-85
2023/07/14 03:27:36;;;;;;;;;;;;;;;15.76;nan;100703.66;5026259;28;19948;-84
2023/07/14 03:30:02;;;;;;;;;;;;;;;15.77;nan;100703.47;5014414;28;19970;-84
2023/07/14 03:32:27;;;;;;;;;;;;;;;15.76;nan;100698.31;5012687;28;19920;-84
2023/07/14 03:34:52;;;;;;;;;;;;;;;15.78;nan;100698.94;5038684;28;19920;-83
2023/07/14 03:37:18;;;;;;;;;;;;;;;15.83;nan;100705.41;5012391;28;20040;-84
2023/07/14 03:39:43;;;;;;;;;;;;;;;15.87;nan;100704.03;5020703;28;19953;-86
2023/07/14 03:42:08;;;;;;;;;;;;;;;15.95;nan;100703.13;5003319;28;20389;-84
2023/07/14 03:44:34;;;;;;;;;;;;;;;16.00;nan;100713.25;5023220;28;20011;-83
2023/07/14 03:47:02;;;;;;;;;;;;;;;16.04;nan;100702.03;5038852;28;19913;-85
2023/07/14 03:49:27;;;;;;;;;;;;;;;16.04;nan;100703.84;5012969;28;20292;-84
2023/07/14 03:51:52;;;;;;;;;;;;;;;16.04;nan;100698.50;5028810;28;19948;-85
2023/07/14 03:54:18;;;;;;;;;;;;;;;16.02;nan;100701.38;5009846;28;20377;-84
2023/07/14 03:56:44;;;;;;;;;;;;;;;16.02;nan;100700.56;5027993;28;20369;-84
2023/07/14 03:59:10;;;;;;;0.10;0.10;;;;;;;16.08;nan;100691.81;5035552;28;20378;-84
2023/07/14 04:01:35;;;;;;;0.10;0.10;;;;;;;16.18;nan;100695.03;5010077;28;20345;-84
2023/07/14 04:04:01;;;;;;;0.10;0.10;;;;;;;16.26;nan;100692.28;5015980;28;20061;-85
2023/07/14 04:06:26;;;;;;;0.10;0.10;;;;;;;16.38;nan;100697.16;5017494;28;20033;-85
2023/07/14 04:08:54;;;;;;;0.10;0.10;;;;;;;16.43;nan;100694.75;5009941;28;20030;-85
2023/07/14 04:11:20;;;;;;;0.10;0.10;;;;;;;16.50;nan;100698.34;5027881;28;20041;-85
2023/07/14 04:13:45;;;;;;;0.10;0.10;;;;;;;16.53;nan;100690.75;5010044;28;20408;-83
2023/07/14 04:16:10;;;;;;;0.10;0.10;;;;;;;16.75;nan;100693.47;5001486;28;20044;-84
2023/07/14 04:18:36;;;;;;;0.10;0.10;;;;;;;16.83;nan;100693.41;5016840;28;20034;-85
2023/07/14 04:21:12;;;;;;;0.10;0.10;;;;;;;16.93;nan;100690.44;5009809;28;20064;-84
2023/07/14 04:23:39;;;;;;;0.13;0.13;;;;;;;16.98;nan;100688.00;5018557;28;20037;-85
2023/07/14 04:26:07;;;;;;;;;;;;;;;17.05;nan;100691.59;5007104;28;20065;-84
2023/07/14 04:28:33;;;;;;;0.10;0.10;;;;;;;17.18;nan;100683.72;5007625;28;19917;-83
2023/07/14 04:31:02;;;;;;;0.10;0.10;;;;;;;17.26;nan;100679.25;5019903;28;20042;-85
2023/07/14 04:33:31;;;;;;;0.10;0.10;;;;;;;17.26;nan;100680.06;5033077;28;20134;-85
2023/07/14 04:35:58;;;;;;;0.03;0.03;;;;;;;17.30;nan;100677.81;5003984;28;20125;-85
2023/07/14 04:38:24;;;;;;;0.10;0.10;;;;;;;17.36;nan;100682.41;5012578;28;20042;-85
2023/07/14 04:40:50;;;;;;;0.10;0.10;;;;;;;17.43;nan;100680.63;5008325;28;20060;-85
2023/07/14 04:43:18;;;;;;;0.10;0.10;;;;;;;17.52;nan;100676.78;5023812;28;19929;-85
2023/07/14 04:45:44;;;;;;;0.10;0.10;;;;;;;17.61;nan;100680.13;5005653;28;20036;-84
2023/07/14 04:48:12;;;;;;;0.10;0.10;;;;;;;17.63;nan;100678.91;5023579;28;20453;-84
2023/07/14 04:50:38;;;;;;;0.10;0.10;;;;;;;17.70;nan;100683.50;4988952;28;20038;-84
2023/07/14 04:53:05;;;;;;;0.10;0.10;;;;;;;17.77;nan;100671.81;5003695;28;20414;-85
2023/07/14 04:55:42;;;;;;;0.10;0.10;;;;;;;17.86;nan;100671.72;4996718;28;20045;-84
2023/07/14 04:58:12;;;;;;;0.10;0.10;;;;;;;17.93;nan;100681.44;5001964;28;20041;-84
2023/07/14 05:00:42;;;;;;;0.10;0.10;;;;;;;17.97;nan;100673.81;5031730;28;20056;-84
2023/07/14 05:03:08;;;;;;;0.10;0.10;;;;;;;18.05;nan;100681.72;5007751;28;20098;-84
2023/07/14 05:05:33;;;;;;;0.10;0.10;;;;;;;18.09;nan;100672.28;5008752;28;20445;-84
2023/07/14 05:08:00;;;;;;;0.10;0.10;;;;;;;18.10;nan;100675.75;5032884;28;20025;-82
2023/07/14 05:10:27;;;;;;;0.10;0.10;;;;;;;18.12;nan;100677.22;5013988;28;20034;-85
2023/07/14 05:12:55;;;;;;;0.10;0.10;;;;;;;18.16;nan;100677.63;5008217;28;20353;-86
2023/07/14 05:15:22;;;;;;;0.10;0.10;;;;;;;18.27;nan;100681.63;5012685;28;20537;-85
2023/07/14 05:17:48;;;;;;;0.10;0.10;;;;;;;18.35;nan;100674.25;5030185;28;20033;-85
2023/07/14 05:20:16;;;;;;;0.10;0.10;;;;;;;18.46;nan;100672.84;5011853;28;20037;-84
2023/07/14 05:22:44;;;;;;;0.10;0.10;;;;;;;18.60;nan;100671.03;5010735;28;20044;-84
2023/07/14 05:25:10;;;;;;;0.10;0.10;;;;;;;18.68;nan;100669.00;5011994;28;20046;-85
2023/07/14 05:27:36;;;;;;;0.10;0.10;;;;;;;18.74;nan;100662.03;5009008;28;20119;-85
2023/07/14 05:30:08;;;;;;;0.10;0.10;;;;;;;18.86;nan;100668.47;5011029;28;20117;-85
2023/07/14 05:32:34;;;;;;;0.10;0.10;;;;;;;19.01;nan;100670.16;5002421;28;20026;-84
2023/07/14 05:35:00;;;;;;;0.10;0.10;;;;;;;19.12;nan;100666.06;5011551;28;20093;-85
2023/07/14 05:37:25;;;;;;;0.10;0.10;;;;;;;19.20;nan;100663.16;5021948;28;20042;-84
2023/07/14 05:39:51;;;;;;;0.10;0.10;;;;;;;19.35;nan;100660.28;5011887;28;20099;-85
2023/07/14 05:42:16;;;;;;;0.10;0.10;;;;;;;19.48;nan;100663.78;5002195;28;20042;-85
2023/07/14 05:44:42;;;;;;;0.10;0.10;;;;;;;19.61;nan;100665.63;5006890;28;20053;-85
2023/07/14 05:47:08;;;;;;;0.10;0.10;;;;;;;19.72;nan;100656.97;5022729;28;20049;-86
2023/07/14 05:49:34;;;;;;;0.10;0.10;;;;;;;19.80;nan;100657.78;5013757;28;20033;-85
2023/07/14 05:51:59;;;;;;;0.10;0.10;;;;;;;19.89;nan;100654.66;5005657;28;20030;-85
2023/07/14 05:54:25;;;;;;;0.10;0.10;;;;;;;19.92;nan;100656.09;5019064;28;20038;-86
2023/07/14 05:56:51;;;;;;;0.10;0.10;;;;;;;19.91;nan;100654.47;5019918;28;20037;-85
2023/07/14 05:59:16;;;;;;;0.10;0.10;;;;;;;19.85;nan;100649.94;5008702;28;20030;-86
2023/07/14 06:01:42;;;;;;;0.10;0.10;;;;;;;19.85;nan;100647.25;5025660;28;20033;-85
2023/07/14 06:04:08;;;;;;;0.10;0.10;;;;;;;19.70;nan;100642.94;5014036;28;20039;-85
2023/07/14 06:06:37;;;;;;;0.10;0.10;;;;;;;19.80;nan;100647.06;5021053;28;20434;-85
2023/07/14 06:09:05;;;;;;;0.10;0.10;;;;;;;20.02;nan;100640.41;5004837;28;20561;-85
2023/07/14 06:11:31;;;;;;;0.10;0.10;;;;;;;20.49;nan;100643.72;5021140;28;20045;-85
2023/07/14 06:13:57;;;;;;;0.10;0.10;;;;;;;20.96;nan;100636.22;5004823;28;20068;-85
2023/07/14 06:16:22;;;;;;;;;;;;;;;21.33;nan;100636.38;5007922;28;20050;-85
2023/07/14 06:18:51;;;;;;;0.10;0.10;;;;;;;21.61;nan;100637.78;5017778;28;20376;-85
2023/07/14 06:21:20;;;;;;;0.10;0.10;;;;;;;21.85;nan;100641.47;5018008;28;20041;-85
2023/07/14 06:23:45;;;;;;;;;;;;;;;22.02;nan;100631.78;4995886;28;20038;-84
2023/07/14 06:26:11;;;;;;;;;;;;;;;21.92;nan;100636.03;5014070;28;19969;-84
2023/07/14 06:28:36;;;;;;;;;;;;;;;21.84;nan;100629.09;5030319;28;19921;-85
2023/07/14 06:31:06;;;;;;;;;;;;;;;21.85;nan;100634.22;5022876;28;19924;-85
2023/07/14 06:33:33;;;;;;;0.10;0.10;;;;;;;22.17;nan;100623.31;5014849;28;19917;-84
2023/07/14 06:35:58;;;;;;;0.00;0.00;;;;;;;22.94;nan;100619.19;5022512;28;20417;-84
2023/07/14 06:38:25;;;;;;;0.00;0.00;;;;;;;23.59;nan;100623.72;5026812;28;20466;-85
2023/07/14 06:41:04;;;;;;;0.00;0.00;;;;;;;23.79;nan;100616.09;5034275;28;20124;-84
2023/07/14 06:43:31;;;;;;;0.00;0.00;;;;;;;23.89;nan;100615.50;5022200;28;20110;-84
2023/07/14 06:45:57;;;;;;;0.00;0.00;;;;;;;24.18;nan;100613.66;5026975;28;20633;-84
2023/07/14 06:48:24;;;;;;;0.00;0.00;;;;;;;24.14;nan;100613.31;5008653;28;20034;-84
2023/07/14 06:50:50;;;;;;;0.00;0.00;;;;;;;23.96;nan;100610.78;5020986;28;20030;-84
2023/07/14 06:53:16;;;;;;;0.00;0.00;;;;;;;23.53;nan;100612.00;5031198;28;20561;-84
2023/07/14 06:55:43;;;;;;;0.08;0.08;;;;;;;23.44;nan;100611.50;5008634;28;20034;-85
2023/07/14 06:58:09;;;;;;;0.00;0.00;;;;;;;23.49;nan;100616.22;5024567;28;20030;-85
2023/07/14 07:00:34;;;;;;;0.00;0.00;;;;;;;23.67;nan;100617.97;5023665;28;20387;-84
2023/07/14 07:03:04;;;;;;;0.00;0.00;;;;;;;24.06;nan;100610.19;5012013;28;20277;-86
2023/07/14 07:05:33;;;;;;;0.00;0.00;;;;;;;24.48;nan;100612.63;5036785;28;20038;-85
2023/07/14 07:07:58;;;;;;;0.00;0.00;;;;;;;24.94;nan;100616.16;5010744;28;20037;-85
2023/07/14 07:10:24;;;;;;;0.00;0.00;;;;;;;25.53;nan;100611.16;5017273;28;20033;-85
2023/07/14 07:12:49;;;;;;;0.00;0.00;;;;;;;25.97;nan;100613.94;5026998;28;20176;-85
2023/07/14 07:15:14;;;;;;;0.00;0.00;;;;;;;26.46;nan;100613.16;5031047;28;20044;-86
2023/07/14 07:17:41;;;;;;;0.00;0.00;;;;;;;26.97;nan;100607.41;5009437;28;20053;-84
2023/07/14 07:20:08;;;;;;;0.00;0.00;;;;;;;27.48;nan;100607.78;5012115;28;20307;-84
2023/07/14 07:22:34;;;;;;;0.00;0.00;;;;;;;27.89;nan;100599.91;5007842;28;20025;-84
2023/07/14 07:25:00;;;;;;;0.00;0.00;;;;;;;28.03;nan;100605.63;5021756;28;20484;-85
2023/07/14 07:27:25;;;;;;;0.00;0.00;;;;;;;28.20;nan;100603.53;5004864;28;20049;-84
2023/07/14 07:29:50;;;;;;;0.00;0.00;;;;;;;28.34;nan;100603.81;5033709;28;20068;-86
2023/07/14 07:32:16;;;;;;;0.00;0.00;;;;;;;28.26;nan;100594.28;5012192;28;20544;-86
2023/07/14 07:34:41;;;;;;;0.00;0.00;;;;;;;28.38;nan;100596.78;5018828;28;20061;-84
2023/07/14 07:37:07;;;;;;;0.00;0.00;;;;;;;28.80;nan;100587.59;5014419;28;20499;-81
2023/07/14 07:39:32;;;;;;;0.00;0.00;;;;;;;29.07;nan;100583.81;5027173;28;20280;-85
2023/07/14 07:41:57;;;;;;;0.00;0.00;;;;;;;29.42;nan;100583.75;5006974;28;20042;-85
2023/07/14 07:44:22;;;;;;;0.00;0.00;;;;;;;29.93;nan;100584.69;5005211;28;20064;-86
2023/07/14 07:46:48;;;;;;;0.00;0.00;;;;;;;30.18;nan;100586.50;5002744;28;20355;-83
2023/07/14 07:49:13;;;;;;;0.00;0.00;;;;;;;30.75;nan;100579.56;5031806;28;20029;-84
2023/07/14 07:51:38;;;;;;;0.00;0.00;;;;;;;31.03;nan;100577.97;5029257;28;20496;-83
2023/07/14 07:54:04;;;;;;;0.00;0.00;;;;;;;31.12;nan;100578.16;5001134;28;20041;-84
2023/07/14 07:56:29;;;;;;;0.00;0.00;;;;;;;31.08;nan;100572.47;5028451;28;20045;-83
2023/07/14 07:58:55;;;;;;;0.00;0.00;;;;;;;31.15;nan;100569.38;5015972;28;20037;-84
2023/07/14 08:01:23;;;;;;;0.00;0.00;;;;;;;31.28;nan;100576.91;5018367;28;20049;-83
2023/07/14 08:03:51;;;;;;;0.00;0.00;;;;;;;31.39;nan;100563.94;5008974;28;20300;-84
2023/07/14 08:06:17;;;;;;;0.00;0.00;;;;;;;31.63;nan;100564.00;5020962;28;20230;-83
2023/07/14 08:08:44;;;;;;;0.00;0.00;;;;;;;31.95;nan;100557.03;5001399;28;20042;-83
2023/07/14 08:11:10;;;;;;;0.00;0.00;;;;;;;31.84;nan;100553.59;5012549;28;20038;-84
2023/07/14 08:13:35;;;;;;;0.00;0.00;;;;;;;31.98;nan;100552.91;5020591;28;20495;-83
2023/07/14 08:16:01;;;;;;;0.00;0.00;;;;;;;32.32;nan;100542.56;5010125;28;20026;-83
2023/07/14 08:18:26;;;;;;;0.00;0.00;;;;;;;32.81;nan;100556.03;5003687;28;20569;-82
2023/07/14 08:20:53;;;;;;;0.00;0.00;;;;;;;33.12;nan;100551.66;5027619;28;20288;-83
2023/07/14 08:23:20;;;;;;;0.00;0.00;;;;;;;33.10;nan;100548.41;5023503;28;20034;-83
2023/07/14 08:25:54;;;;;;;0.00;0.00;;;;;;;33.09;nan;100546.78;5015439;28;20497;-83
2023/07/14 08:28:20;;;;;;;0.00;0.00;;;;;;;32.88;nan;100549.06;5020910;28;20116;-85
2023/07/14 08:30:47;;;;;;;0.00;0.00;;;;;;;33.11;nan;100541.81;5021130;28;20033;-83
2023/07/14 08:33:12;;;;;;;0.00;0.00;;;;;;;33.47;nan;100538.38;5009856;28;20037;-84
2023/07/14 08:35:38;;;;;;;0.00;0.00;;;;;;;33.94;nan;100539.03;5029952;28;20044;-84
2023/07/14 08:38:03;;;;;;;0.00;0.00;;;;;;;33.83;nan;100538.47;5020611;28;20281;-84
2023/07/14 08:40:36;;;;;;;0.00;0.00;;;;;;;33.99;nan;100543.59;5019372;28;20038;-84
2023/07/14 08:43:32;;;;;;;0.00;0.00;;;;;;;34.48;nan;100533.69;5010468;28;20101;-84
2023/07/14 08:46:06;;;;;;;0.00;0.00;;;;;;;35.39;nan;100529.69;5021749;28;20134;-84
2023/07/14 08:48:37;;;;;;;0.00;0.00;;;;;;;35.84;nan;100526.72;5022242;28;20037;-84
2023/07/14 08:51:15;;;;;;;0.00;0.00;;;;;;;36.26;nan;100532.59;5009829;28;20284;-83
2023/07/14 08:53:57;;;;;;;0.00;0.00;;;;;;;36.11;nan;100525.66;4997640;28;20510;-84
2023/07/14 08:56:23;;;;;;;0.00;0.00;;;;;;;36.17;nan;100514.47;5021441;28;20089;-84
2023/07/14 08:58:52;;;;;;;0.00;0.00;;;;;;;35.93;nan;100524.78;5028638;28;20107;-85
2023/07/14 09:01:36;;;;;;;0.00;0.00;;;;;;;35.60;nan;100527.19;5002496;28;20044;-84
2023/07/14 09:04:14;;;;;;;0.00;0.00;;;;;;;34.64;nan;100525.94;5009161;28;20137;-84
2023/07/14 09:06:40;;;;;;;0.00;0.00;;;;;;;33.91;nan;100523.19;4998133;28;20033;-84
2023/07/14 09:09:16;;;;;;;0.00;0.00;;;;;;;34.10;nan;100527.75;5030630;28;20107;-83
2023/07/14 09:11:52;;;;;;;0.00;0.00;;;;;;;34.45;nan;100526.91;5021370;28;20033;-83
2023/07/14 09:14:55;;;;;;;0.00;0.00;;;;;;;35.17;nan;100527.03;5027690;28;20069;-83
2023/07/14 09:17:34;;;;;;;0.00;0.00;;;;;;;35.73;nan;100523.50;5023293;28;20124;-84
2023/07/14 09:20:11;;;;;;;0.00;0.00;;;;;;;35.97;nan;100519.47;5012928;28;20056;-85
2023/07/14 09:22:40;;;;;;;0.00;0.00;;;;;;;36.19;nan;100518.53;5001302;28;20072;-85
2023/07/14 09:25:29;;;;;;;0.00;0.00;;;;;;;36.01;nan;100514.13;5029903;28;20042;-84
2023/07/14 09:27:55;;;;;;;0.00;0.00;;;;;;;35.76;nan;100510.22;5027360;28;20030;-85
2023/07/14 09:30:23;;;;;;;0.00;0.00;;;;;;;35.87;nan;100512.31;5009611;28;20045;-87
2023/07/14 09:33:01;;;;;;;0.00;0.00;;;;;;;35.39;nan;100506.88;5027803;28;20022;-84
2023/07/14 09:35:28;;;;;;;0.00;0.00;;;;;;;34.94;nan;100507.00;5014697;28;20406;-86
2023/07/14 09:38:10;;;;;;;0.00;0.00;;;;;;;34.58;nan;100511.47;5003118;28;20036;-83
2023/07/14 09:40:38;;;;;;;0.00;0.00;;;;;;;35.29;nan;100502.50;4993606;28;20125;-83
2023/07/14 09:43:05;;;;;;;0.00;0.00;;;;;;;35.67;nan;100502.75;5005829;28;20063;-84
2023/07/14 09:45:37;;;;;;;0.00;0.00;;;;;;;35.23;nan;100501.00;5013889;28;20030;-84
2023/07/14 09:48:16;;;;;;;0.00;0.00;;;;;;;35.08;nan;100496.72;5012457;28;20045;-82
2023/07/14 09:50:53;;;;;;;0.00;0.00;;;;;;;34.81;nan;100492.25;4995389;28;20424;-83
2023/07/14 09:53:18;;;;;;;0.00;0.00;;;;;;;34.30;nan;100494.34;5022036;28;20039;-82
2023/07/14 09:55:52;;;;;;;0.00;0.00;;;;;;;33.99;nan;100494.22;5005248;28;20034;-85
2023/07/14 09:58:22;;;;;;;0.00;0.00;;;;;;;34.12;nan;100482.41;5024314;28;20462;-85
2023/07/14 10:00:50;;;;;;;0.00;0.00;;;;;;;34.31;nan;100482.22;5030621;28;20128;-84
2023/07/14 10:03:19;;;;;;;0.00;0.00;;;;;;;34.54;nan;100482.19;5012757;28;20085;-84
2023/07/14 10:06:10;;;;;;;0.00;0.00;;;;;;;34.17;nan;100476.81;5018290;28;20580;-83
2023/07/14 10:08:54;;;;;;;;;;;;;;;33.70;nan;100472.66;5023223;28;20068;-85
2023/07/14 10:11:30;;;;;;;0.00;0.00;;;;;;;33.37;nan;100473.63;5036077;28;19924;-84
2023/07/14 10:14:05;;;;;;;0.00;0.00;;;;;;;33.29;nan;100471.59;5029008;28;20049;-84
2023/07/14 10:16:34;;;;;;;0.00;0.00;;;;;;;33.26;nan;100465.91;5034641;28;20069;-83
2023/07/14 10:19:05;;;;;;;0.00;0.00;;;;;;;33.39;nan;100463.13;5016845;28;20487;-83
2023/07/14 10:21:33;;;;;;;0.00;0.00;;;;;;;33.77;nan;100465.63;5007148;28;20395;-84
2023/07/14 10:24:19;;;;;;;0.00;0.00;;;;;;;33.84;nan;100468.75;5020314;28;20578;-83
2023/07/14 10:26:54;;;;;;;0.00;0.00;;;;;;;34.26;nan;100463.94;5023785;28;20124;-83
2023/07/14 10:29:22;;;;;;;0.00;0.00;;;;;;;34.53;nan;100461.38;5002381;28;20041;-83
2023/07/14 10:32:15;;;;;;;0.00;0.00;;;;;;;34.51;nan;100458.94;5008023;28;20121;-84
2023/07/14 10:35:11;;;;;;;0.00;0.00;;;;;;;34.72;nan;100455.69;5000004;28;20105;-81
2023/07/14 10:37:46;;;;;;;0.00;0.00;;;;;;;35.01;nan;100455.16;5017997;28;20048;-83
2023/07/14 10:40:17;;;;;;;0.00;0.00;;;;;;;35.56;nan;100453.84;5022005;28;20033;-85
2023/07/14 10:43:03;;;;;;;0.00;0.00;;;;;;;36.99;nan;100444.44;5025623;28;20034;-83
2023/07/14 10:45:30;;;;;;;0.00;0.00;;;;;;;38.04;nan;100449.25;5015343;28;20034;-83
2023/07/14 10:48:03;;;;;;;0.00;0.00;;;;;;;37.57;nan;100438.44;5005051;28;20496;-85
2023/07/14 10:50:43;;;;;;;0.00;0.00;;;;;;;37.43;nan;100432.38;5008645;28;20257;-84
2023/07/14 10:53:42;;;;;;;0.00;0.00;;;;;;;38.48;nan;100449.66;5003896;28;20174;-84
2023/07/14 10:56:45;;;;;;;0.00;0.00;;;;;;;38.61;nan;100442.97;5004758;28;20045;-85
2023/07/14 10:59:35;;;;;;;0.00;0.00;;;;;;;38.64;nan;100445.09;4967807;28;20048;-86
2023/07/14 11:02:16;;;;;;;0.00;0.00;;;;;;;37.69;nan;100440.47;5023691;28;20048;-85
2023/07/14 11:04:46;;;;;;;0.00;0.00;;;;;;;36.96;nan;100427.75;5011307;28;20041;-83
2023/07/14 11:07:28;;;;;;;;;;;;;;;35.96;nan;100434.47;5020098;28;20034;-83
2023/07/14 11:09:54;;;;;;;0.00;0.00;;;;;;;34.82;nan;100428.72;5010946;28;19979;-82
2023/07/14 11:12:39;;;;;;;0.00;0.00;;;;;;;33.97;nan;100427.88;5010472;28;20438;-83
2023/07/14 11:15:17;;;;;;;0.00;0.00;;;;;;;33.48;nan;100421.31;5020044;28;20049;-83
2023/07/14 11:17:51;;;;;;;0.00;0.00;;;;;;;33.74;nan;100411.41;5024098;28;20034;-82
2023/07/14 11:20:49;;;;;;;0.00;0.00;;;;;;;34.81;nan;100405.16;5026287;28;20041;-82
2023/07/14 11:23:37;;;;;;;0.00;0.00;;;;;;;35.33;nan;100403.66;4994979;28;20132;-82
2023/07/14 11:26:16;;;;;;;0.00;0.00;;;;;;;35.51;nan;100400.63;5010014;28;20079;-81
2023/07/14 11:29:05;;;;;;;0.00;0.00;;;;;;;36.14;nan;100323.25;5013439;28;20030;-82
2023/07/14 11:31:36;;;;;;;0.00;0.00;;;;;;;36.12;nan;100342.03;5030644;28;20068;-84
2023/07/14 11:34:01;;;;;;;0.00;0.00;;;;;;;;;;5022598;28;20077;-84
2023/07/14 11:36:35;;;;;;;0.00;0.00;;;;;;;36.13;nan;100355.44;5018825;28;20050;-82
2023/07/14 11:39:11;;;;;;;0.00;0.00;;;;;;;;;;4994783;28;20042;-83
2023/07/14 11:41:37;;;;;;;0.00;0.00;;;;;;;36.46;nan;100309.97;5011081;28;20037;-83
2023/07/14 11:44:13;;;;;;;0.00;0.00;;;;;;;36.16;nan;100326.47;5017147;28;20056;-82
2023/07/14 11:46:39;;;;;;;0.00;0.00;;;;;;;36.24;nan;100283.53;5005730;28;20094;-84
2023/07/14 11:49:06;;;;;;;0.00;0.00;;;;;;;35.96;nan;100321.63;5026619;28;20044;-85
2023/07/14 11:51:55;;;;;;;0.00;0.00;;;;;;;35.17;nan;100359.34;5001528;28;20036;-83
2023/07/14 11:54:41;;;;;;;0.00;0.00;;;;;;;34.81;nan;100358.44;5028517;28;20171;-84
2023/07/14 11:57:15;;;;;;;0.00;0.00;;;;;;;34.75;nan;100354.22;5026563;28;20410;-84
2023/07/14 11:59:56;;;;;;;0.00;0.00;;;;;;;35.43;nan;100265.88;5025583;28;20554;-85
2023/07/14 12:02:26;;;;;;;0.00;0.00;;;;;;;;;;5007208;28;20033;-83
2023/07/14 12:05:01;;;;;;;0.00;0.00;;;;;;;35.78;nan;100239.16;5031817;28;20052;-82
2023/07/14 12:07:28;;;;;;;0.00;0.00;;;;;;;35.13;nan;100323.44;5028937;28;20503;-83
2023/07/14 12:10:15;;;;;;;0.00;0.00;;;;;;;34.23;nan;100321.88;5022961;28;20060;-83
2023/07/14 12:13:01;;;;;;;0.00;0.00;;;;;;;33.32;nan;100261.84;5001131;28;20026;-83